Time;durP1;ratioP1;P1;durP2;ratioP2;P2;SDS_P1;SDS_P2;PMS_P1;PMS_P2;Temp;Humidity;BMP_temperature;BMP_pressure;BME280_temperature;BME280_humidity;BME280_pressure;Samples;Min_cycle;Max_cycle;Signal;HPM_P1;HPM_P2
2022/08/15 00:05:52;;;;;;;12.23;7.33;;;;;;;27.28;55.02;99925.86;1775764;80;21497;-69
2022/08/15 00:08:22;;;;;;;15.28;7.30;;;;;;;27.26;55.23;99928.68;1775528;80;21088;-70
2022/08/15 00:17:30;;;;;;;12.35;6.72;;;;;;;27.34;54.77;99931.19;1769245;80;21084;-69
2022/08/15 00:19:58;;;;;;;11.80;6.53;;;;;;;27.18;55.35;99926.95;1776954;80;21045;-69
2022/08/15 00:22:25;;;;;;;11.53;6.90;;;;;;;27.27;54.69;99921.08;1774971;80;21068;-69
2022/08/15 00:24:55;;;;;;;12.07;6.60;;;;;;;27.24;54.84;99922.77;1764658;80;21069;-68
2022/08/15 00:27:25;;;;;;;12.10;7.12;;;;;;;27.27;54.92;99921.56;1753460;80;21553;-69
2022/08/15 00:30:13;;;;;;;9.58;6.78;;;;;;;27.27;54.80;99915.80;1762210;80;21155;-70
2022/08/15 00:32:40;;;;;;;10.80;6.60;;;;;;;27.29;54.76;99913.78;1769659;80;21068;-69
2022/08/15 00:35:47;;;;;;;9.55;6.50;;;;;;;27.29;54.74;99908.98;1779650;80;21149;-69
2022/08/15 00:38:26;;;;;;;11.75;6.90;;;;;;;27.27;54.70;99905.70;1680466;83;21053;-70
2022/08/15 00:44:08;;;;;;;10.35;6.78;;;;;;;27.22;54.89;99902.80;1709119;82;20384;-69
2022/08/15 00:46:36;;;;;;;10.82;6.45;;;;;;;27.31;54.56;99902.52;1692822;83;21512;-69
2022/08/15 00:49:05;;;;;;;10.93;6.78;;;;;;;27.25;54.99;99903.76;1728411;83;21076;-69
2022/08/15 00:51:51;;;;;;;10.50;6.40;;;;;;;27.27;55.02;99903.06;1714623;83;21045;-69
2022/08/15 00:54:58;;;;;;;12.88;6.50;;;;;;;27.31;54.68;99901.67;1698306;83;21092;-69
2022/08/15 01:06:37;;;;;;;10.28;6.62;;;;;;;27.11;55.41;99893.55;1605806;88;21607;-69
2022/08/15 01:09:17;;;;;;;12.15;6.95;;;;;;;27.09;55.20;99892.44;1658907;86;20999;-69
2022/08/15 01:17:59;;;;;;;8.50;6.62;;;;;;;27.11;55.02;99889.11;1633503;87;21194;-69
2022/08/15 01:26:37;;;;;;;11.45;7.00;;;;;;;26.93;55.13;99901.95;1642872;86;21085;-69
2022/08/15 01:29:16;;;;;;;12.35;6.78;;;;;;;26.93;55.13;99901.95;1714518;83;21010;-68
2022/08/15 01:31:45;;;;;;;9.93;7.05;;;;;;;27.00;55.63;99905.97;1711169;84;21010;-69
2022/08/15 01:34:12;;;;;;;10.32;7.10;;;;;;;27.00;55.63;99905.97;1708417;83;21053;-68
2022/08/15 01:36:40;;;;;;;11.45;7.08;;;;;;;26.91;55.86;99910.06;1700533;83;21093;-68
2022/08/15 01:39:34;;;;;;;13.98;6.65;;;;;;;26.91;55.86;99910.06;1707839;83;21061;-69
2022/08/15 01:42:30;;;;;;;11.80;7.20;;;;;;;26.92;55.75;99906.39;1702745;83;21525;-69
2022/08/15 01:45:39;;;;;;;14.75;7.47;;;;;;;26.98;55.41;99907.47;1773703;80;21073;-69
2022/08/15 01:48:31;;;;;;;12.60;6.90;;;;;;;26.96;56.08;99905.52;1768686;80;21096;-69
2022/08/15 01:57:11;;;;;;;10.80;7.00;;;;;;;27.04;55.27;99886.90;1710388;83;21111;-69
2022/08/15 01:59:38;;;;;;;11.75;7.53;;;;;;;27.04;55.27;99886.90;1697654;83;21014;-68
2022/08/15 02:05:05;;;;;;;14.07;6.80;;;;;;;27.12;55.53;99894.69;1674452;83;21043;-69
2022/08/15 02:07:39;;;;;;;9.55;6.17;;;;;;;27.15;54.76;99898.28;1703182;83;21495;-68
2022/08/15 02:10:07;;;;;;;7.12;6.40;;;;;;;27.29;54.95;99892.64;1712138;84;21665;-69
2022/08/15 02:12:40;;;;;;;8.23;6.22;;;;;;;27.38;54.52;99892.79;1684530;85;21067;-69
2022/08/15 02:15:45;;;;;;;11.75;5.97;;;;;;;27.49;54.20;99897.23;1677527;84;21592;-69
2022/08/15 02:18:25;;;;;;;10.10;6.53;;;;;;;27.45;55.04;99895.98;1658908;85;21060;-69
2022/08/15 02:21:06;;;;;;;12.98;6.75;;;;;;;27.40;54.48;99893.92;1683554;84;21062;-69
2022/08/15 02:23:52;;;;;;;12.68;6.50;;;;;;;27.48;54.52;99895.61;1703267;83;21602;-70
2022/08/15 02:26:35;;;;;;;9.88;6.15;;;;;;;27.62;54.37;99893.36;1701744;83;21177;-69
2022/08/15 02:29:06;;;;;;;11.65;6.62;;;;;;;27.54;54.87;99897.48;1656687;85;21128;-70
2022/08/15 02:32:27;;;;;;;11.93;6.33;;;;;;;27.43;54.79;99894.84;1617186;86;21082;-69
2022/08/15 02:38:05;;;;;;;13.53;6.87;;;;;;;27.52;54.93;99909.56;1617270;86;21058;-69
2022/08/15 02:40:34;;;;;;;11.65;6.15;;;;;;;27.51;55.08;99915.84;1631079;88;21096;-70
2022/08/15 02:46:16;;;;;;;10.25;6.15;;;;;;;27.44;55.75;99916.83;1621759;87;21073;-69
2022/08/15 02:49:01;;;;;;;12.07;6.33;;;;;;;27.41;55.44;99918.52;1657195;84;21089;-70
2022/08/15 02:52:08;;;;;;;11.40;6.30;;;;;;;27.41;55.47;99919.33;1700754;83;21086;-70
2022/08/15 02:54:53;;;;;;;13.28;6.60;;;;;;;27.44;54.85;99922.93;1678879;83;21103;-69
2022/08/15 02:57:20;;;;;;;9.40;6.15;;;;;;;27.48;54.61;99919.41;1704680;83;21060;-70
2022/08/15 02:59:48;;;;;;;12.60;6.22;;;;;;;27.46;55.35;99918.78;1707269;84;21044;-70
2022/08/15 03:02:17;;;;;;;11.10;6.22;;;;;;;27.42;54.98;99920.17;1688577;83;21050;-70
2022/08/15 03:05:18;;;;;;;12.18;6.28;;;;;;;27.42;54.36;99915.70;1696377;83;21074;-69
2022/08/15 03:07:47;;;;;;;8.83;6.05;;;;;;;27.49;55.54;99917.05;1699273;83;21087;-70
2022/08/15 03:10:14;;;;;;;12.45;6.30;;;;;;;27.48;54.58;99910.95;1697768;82;21536;-70
2022/08/15 03:15:56;;;;;;;11.65;6.08;;;;;;;27.52;54.74;99912.72;1709430;83;21052;-69
2022/08/15 03:21:49;;;;;;;8.35;6.03;;;;;;;27.67;54.50;99912.09;1729838;82;21511;-69
2022/08/15 03:24:32;;;;;;;10.03;5.85;;;;;;;27.64;54.36;99916.46;1710381;82;21063;-70
2022/08/15 03:27:09;;;;;;;11.33;5.90;;;;;;;27.77;54.46;99912.56;1729745;81;21646;-69
2022/08/15 03:29:37;;;;;;;11.15;5.87;;;;;;;27.76;55.06;99910.13;1719404;82;21096;-69
2022/08/15 03:32:29;;;;;;;9.95;6.05;;;;;;;27.68;54.48;99915.06;1710998;81;21044;-69
2022/08/15 03:34:56;;;;;;;14.45;5.78;;;;;;;27.82;54.01;99917.77;1719540;82;21035;-69
2022/08/15 03:37:23;;;;;;;13.70;5.90;;;;;;;27.92;53.90;99910.33;1763049;80;21557;-70
2022/08/15 03:40:15;;;;;;;11.70;6.20;;;;;;;27.89;54.17;99926.60;1685934;83;21047;-69
2022/08/15 03:43:10;;;;;;;13.38;5.78;;;;;;;27.94;54.98;99917.56;1776786;80;21037;-70
2022/08/15 03:45:37;;;;;;;9.20;5.67;;;;;;;27.72;54.92;99929.53;1759956;80;21021;-70
2022/08/15 03:48:06;;;;;;;12.13;5.70;;;;;;;27.71;54.82;99929.20;1773231;80;21025;-68
2022/08/15 03:50:33;;;;;;;11.78;6.10;;;;;;;27.83;54.58;99931.31;1776194;80;21140;-69
2022/08/15 03:53:28;;;;;;;10.82;5.80;;;;;;;27.96;54.09;99937.54;1765464;80;21037;-69
2022/08/15 03:56:32;;;;;;;10.08;5.80;;;;;;;28.07;53.99;99932.70;1772595;80;21030;-69
2022/08/15 03:59:17;;;;;;;8.50;5.47;;;;;;;27.92;54.57;99934.13;1746414;80;21089;-70
2022/08/15 04:02:05;;;;;;;12.93;5.90;;;;;;;27.96;54.64;99940.67;1763734;80;21261;-69
2022/08/15 04:04:33;;;;;;;10.90;5.85;;;;;;;27.87;54.92;99936.05;1769691;80;21003;-70
2022/08/15 04:07:03;;;;;;;10.98;5.65;;;;;;;27.84;55.11;99940.39;1739064;80;21066;-70
2022/08/15 04:09:39;;;;;;;11.60;6.03;;;;;;;27.89;55.26;99939.31;1691928;83;21588;-70
2022/08/15 04:12:29;;;;;;;15.28;5.95;;;;;;;27.84;55.36;99936.42;1776018;80;21022;-70
2022/08/15 04:14:56;;;;;;;10.48;5.72;;;;;;;27.97;55.28;99929.89;1766195;80;21050;-70
2022/08/15 04:17:24;;;;;;;7.78;5.37;;;;;;;27.97;54.96;99928.57;1784738;80;21064;-70
2022/08/15 04:19:52;;;;;;;13.48;5.28;;;;;;;28.09;54.95;99929.36;1784862;80;20986;-69
2022/08/15 04:22:59;;;;;;;7.65;5.70;;;;;;;28.12;54.97;99927.63;1779717;79;21045;-70
2022/08/15 04:28:25;;;;;;;9.93;6.42;;;;;;;28.02;55.00;99926.69;1762232;81;21513;-70
2022/08/15 04:31:23;;;;;;;16.70;5.95;;;;;;;28.14;55.83;99924.27;1680293;83;21047;-70
2022/08/15 04:33:51;;;;;;;9.78;5.40;;;;;;;28.17;54.99;99930.52;1774547;80;21038;-70
2022/08/15 04:36:52;;;;;;;14.13;5.70;;;;;;;28.44;54.71;99923.48;1776861;79;21015;-69
2022/08/15 04:39:20;;;;;;;11.28;5.22;;;;;;;28.68;55.01;99930.61;1755151;80;21049;-70
2022/08/15 04:42:13;;;;;;;9.05;5.90;;;;;;;28.81;55.20;99925.84;1763491;80;21034;-69
2022/08/15 04:44:40;;;;;;;10.88;5.62;;;;;;;29.08;55.79;99933.33;1775331;80;21096;-70
2022/08/15 04:47:24;;;;;;;13.48;5.45;;;;;;;29.04;54.44;99933.43;1775936;80;21041;-70
2022/08/15 04:49:57;;;;;;;10.80;5.60;;;;;;;29.11;54.46;99927.64;1771133;80;21053;-70
2022/08/15 04:52:28;;;;;;;12.63;5.78;;;;;;;29.21;54.80;99931.22;1749570;80;21167;-70
2022/08/15 04:54:57;;;;;;;14.83;5.33;;;;;;;29.12;54.67;99934.06;1783240;80;21037;-71
2022/08/15 04:57:26;;;;;;;9.38;4.92;;;;;;;29.15;55.60;99933.65;1778172;80;21084;-71
2022/08/15 05:00:10;;;;;;;12.55;5.75;;;;;;;29.24;55.76;99932.12;1749007;80;21046;-70
2022/08/15 05:03:20;;;;;;;14.40;5.20;;;;;;;29.13;55.45;99924.27;1754839;81;21030;-70
2022/08/15 05:08:49;;;;;;;14.28;5.30;;;;;;;29.13;55.71;99940.18;1744145;81;21057;-70
2022/08/15 05:56:04;;;;;;;14.35;5.10;;;;;;;28.99;100.00;114090.72;1761963;80;21509;-69
2022/08/15 06:04:53;;;;;;;11.12;5.45;;;;;;;29.50;100.00;114090.72;1775455;80;21061;-68
2022/08/15 06:08:47;;;;;;;15.90;5.97;;;;;;;28.99;100.00;114090.72;1764320;80;21540;-66
2022/08/15 06:47:03;;;;;;;12.88;6.67;;;;;;;28.99;54.54;99935.86;1745558;80;21151;-71
2022/08/15 06:49:36;;;;;;;14.38;6.90;;;;;;;28.99;54.54;99935.86;1757687;80;21068;-68
2022/08/15 06:52:06;;;;;;;12.60;6.80;;;;;;;30.36;50.07;99948.89;1775791;80;21021;-70
2022/08/15 07:00:50;;;;;;;15.15;6.60;;;;;;;30.47;51.52;99954.05;1772480;80;20997;-69
2022/08/15 07:03:47;;;;;;;14.58;6.17;;;;;;;30.47;51.52;99954.05;1779197;80;21116;-70
2022/08/15 07:06:20;;;;;;;11.75;6.40;;;;;;;30.59;50.52;99947.55;1783753;80;21006;-70
2022/08/15 07:08:55;;;;;;;13.00;6.28;;;;;;;30.79;50.48;99952.75;1744853;80;21041;-69
2022/08/15 07:11:30;;;;;;;12.40;6.00;;;;;;;30.81;51.30;99944.05;1767353;80;21034;-69
2022/08/15 07:14:30;;;;;;;12.53;5.87;;;;;;;30.92;51.39;99952.68;1758421;80;21037;-69
2022/08/15 07:17:27;;;;;;;14.05;5.92;;;;;;;31.06;52.66;99967.51;1781830;80;21548;-70
2022/08/15 07:19:54;;;;;;;17.15;6.17;;;;;;;30.92;52.05;99976.11;1740627;80;21077;-69
2022/08/15 07:22:24;;;;;;;16.25;6.08;;;;;;;30.84;52.37;99975.50;1774720;80;21061;-69
2022/08/15 07:24:56;;;;;;;15.40;5.85;;;;;;;31.11;52.44;99972.20;1770684;80;21104;-69
2022/08/15 07:27:30;;;;;;;13.20;5.92;;;;;;;31.44;51.98;99967.97;1766819;80;20993;-69
2022/08/15 07:30:20;;;;;;;14.23;5.83;;;;;;;31.77;51.22;99962.03;1762550;80;21604;-69
2022/08/15 07:32:54;;;;;;;10.68;5.20;;;;;;;31.61;50.40;99966.91;1722938;80;21045;-69
2022/08/15 07:35:31;;;;;;;11.10;5.75;;;;;;;31.94;50.69;99967.09;1764150;80;21126;-69
2022/08/15 07:38:05;;;;;;;16.17;6.20;;;;;;;32.33;51.25;99967.69;1779923;80;21021;-69
2022/08/15 07:40:38;;;;;;;10.28;5.87;;;;;;;32.50;51.06;99974.03;1742615;80;21561;-69
2022/08/15 07:43:26;;;;;;;9.98;5.53;;;;;;;32.68;50.38;99969.19;1749317;80;21128;-69
2022/08/15 07:46:19;;;;;;;9.63;5.47;;;;;;;32.88;50.02;99974.23;1707397;82;21080;-69
2022/08/15 07:49:07;;;;;;;13.60;6.00;;;;;;;33.39;49.30;99970.70;1685262;83;21035;-69
2022/08/15 07:51:42;;;;;;;18.80;6.47;;;;;;;33.63;48.19;99975.55;1772006;80;21086;-70
2022/08/15 07:54:51;;;;;;;14.80;6.53;;;;;;;32.96;48.44;99970.97;1720785;82;21053;-69
2022/08/15 07:57:35;;;;;;;13.28;6.05;;;;;;;32.68;48.80;99977.70;1771343;80;21041;-69
2022/08/15 08:00:19;;;;;;;14.53;5.75;;;;;;;32.90;49.12;99984.68;1769496;80;21065;-69
2022/08/15 08:03:17;;;;;;;16.80;6.17;;;;;;;33.11;48.91;99980.69;1776264;80;21081;-69
2022/08/15 08:39:01;;;;;;;15.08;5.92;;;;;;;33.80;47.82;99937.47;1759286;80;21081;-69
2022/08/15 08:41:51;;;;;;;11.20;5.58;;;;;;;34.08;47.83;99950.06;1732010;80;21030;-69
2022/08/15 08:44:45;;;;;;;16.12;6.03;;;;;;;34.24;48.53;99950.68;1763197;80;21030;-69
2022/08/15 08:47:26;;;;;;;11.03;5.58;;;;;;;33.76;46.23;99938.98;1700434;81;21153;-69
2022/08/15 08:50:13;;;;;;;11.05;5.70;;;;;;;33.84;45.59;99935.95;1747802;80;21549;-69
2022/08/15 08:52:52;;;;;;;11.68;5.78;;;;;;;33.67;45.17;99932.67;1764217;80;21081;-69
2022/08/15 08:55:28;;;;;;;16.85;6.17;;;;;;;33.82;45.77;99924.19;1770454;80;21076;-69
2022/08/15 08:58:11;;;;;;;13.75;5.78;;;;;;;33.62;45.68;99933.91;1759303;80;21112;-69
2022/08/15 09:00:47;;;;;;;15.78;6.25;;;;;;;34.01;45.64;99924.83;1763779;80;21555;-70
2022/08/15 09:03:34;;;;;;;17.90;5.90;;;;;;;33.89;45.90;99924.86;1757914;80;21080;-70
2022/08/15 09:06:02;;;;;;;14.10;5.70;;;;;;;33.84;45.90;99925.27;1774460;80;21041;-69
2022/08/15 09:08:39;;;;;;;12.00;5.28;;;;;;;33.58;46.43;99934.05;1776395;80;21038;-69
2022/08/15 09:11:14;;;;;;;18.40;5.40;;;;;;;33.75;45.85;99928.84;1773123;80;21021;-69
2022/08/15 09:13:44;;;;;;;18.15;4.97;;;;;;;33.53;45.25;99927.26;1765866;80;21061;-69
2022/08/15 09:16:34;;;;;;;15.00;5.40;;;;;;;33.51;46.37;99929.34;1746714;80;21102;-70
2022/08/15 09:19:24;;;;;;;12.53;5.25;;;;;;;33.62;45.68;99923.23;1760154;80;21049;-69
2022/08/15 09:21:52;;;;;;;16.27;5.17;;;;;;;33.77;45.27;99917.40;1709463;80;21002;-69
2022/08/15 09:24:22;;;;;;;8.65;5.00;;;;;;;34.35;45.26;99915.64;1762905;80;21032;-69
2022/08/15 09:27:21;;;;;;;10.13;5.10;;;;;;;34.60;45.09;99911.80;1739835;80;21021;-70
2022/08/15 09:29:55;;;;;;;11.65;4.65;;;;;;;34.93;45.82;99920.39;1762712;80;21446;-69
2022/08/15 09:32:58;;;;;;;13.30;4.47;;;;;;;34.98;43.79;99914.30;1733243;80;21572;-69
2022/08/15 09:35:51;;;;;;;12.23;4.75;;;;;;;34.85;43.20;99914.91;1711176;80;21034;-69
2022/08/15 09:38:57;;;;;;;10.30;5.12;;;;;;;34.84;44.01;99915.98;1756222;80;21543;-69
2022/08/15 09:41:51;;;;;;;14.15;5.00;;;;;;;34.96;44.18;99925.27;1762239;80;21089;-71
2022/08/15 09:44:29;;;;;;;9.88;4.70;;;;;;;35.15;44.43;99919.66;1769463;80;21211;-69
2022/08/15 09:47:14;;;;;;;10.82;4.85;;;;;;;34.99;43.84;99922.63;1766132;80;21599;-70
2022/08/15 09:49:49;;;;;;;12.88;5.00;;;;;;;34.59;43.58;99912.83;1752770;80;21608;-69
2022/08/15 09:52:47;;;;;;;9.50;4.90;;;;;;;34.55;43.92;99919.17;1759431;80;21069;-69
2022/08/15 09:55:28;;;;;;;11.43;5.35;;;;;;;34.52;43.35;99916.47;1763264;80;21016;-70
2022/08/15 09:57:57;;;;;;;10.48;4.65;;;;;;;34.82;44.15;99922.09;1784096;80;21142;-70
2022/08/15 10:00:41;;;;;;;13.98;4.83;;;;;;;35.00;44.06;99912.19;1783481;80;21135;-70
2022/08/15 10:03:49;;;;;;;10.15;4.67;;;;;;;34.80;42.53;99920.19;1717712;80;21189;-70
2022/08/15 10:06:30;;;;;;;10.28;4.67;;;;;;;35.01;43.52;99913.83;1734110;80;21038;-70
2022/08/15 10:09:17;;;;;;;9.58;5.03;;;;;;;34.98;43.12;99914.30;1767710;80;21017;-67
2022/08/15 10:11:50;;;;;;;11.85;4.75;;;;;;;34.82;42.61;99920.76;1763995;80;21053;-69
2022/08/15 10:14:25;;;;;;;10.03;5.28;;;;;;;34.96;42.81;99909.72;1759064;80;21529;-70
2022/08/15 10:17:04;;;;;;;13.43;5.10;;;;;;;35.22;43.13;99927.84;1770086;80;21081;-69
2022/08/15 10:19:39;;;;;;;10.25;5.12;;;;;;;35.33;44.69;99921.30;1767489;80;21089;-69
2022/08/15 10:22:26;;;;;;;13.50;5.30;;;;;;;35.47;42.92;99918.02;1757269;80;21054;-69
2022/08/15 10:25:20;;;;;;;12.65;5.53;;;;;;;35.61;42.07;99923.03;1766794;80;21509;-70
2022/08/15 10:28:06;;;;;;;12.60;5.20;;;;;;;35.56;41.60;99922.41;1767229;80;21033;-70
2022/08/15 10:30:44;;;;;;;11.88;5.25;;;;;;;35.34;41.74;99914.34;1776387;80;21056;-70
2022/08/15 10:33:38;;;;;;;10.65;5.35;;;;;;;35.71;42.66;99917.84;1748783;80;20998;-69
2022/08/15 10:36:14;;;;;;;9.28;5.15;;;;;;;36.22;40.03;99924.36;1754061;80;21049;-69
2022/08/15 10:38:58;;;;;;;11.43;5.28;;;;;;;36.28;41.46;99917.98;1748580;80;21530;-70
2022/08/15 10:41:37;;;;;;;9.98;5.03;;;;;;;36.17;41.56;99919.73;1753089;80;21040;-70
2022/08/15 10:44:24;;;;;;;10.45;5.20;;;;;;;36.17;41.21;99917.59;1760078;80;21085;-69
2022/08/15 10:47:02;;;;;;;11.40;5.50;;;;;;;36.29;41.67;99922.27;1759684;80;21101;-70
2022/08/15 10:49:55;;;;;;;11.18;5.17;;;;;;;36.10;42.01;99916.42;1721363;81;21128;-70
2022/08/15 10:52:47;;;;;;;;;;;;;;;36.21;41.44;99913.34;1773027;81;21050;-70
2022/08/15 10:55:19;;;;;;;11.70;5.53;;;;;;;36.43;42.83;99901.23;1746597;80;20116;-70
2022/08/15 10:58:00;;;;;;;12.10;5.53;;;;;;;36.50;41.75;99902.66;1766502;80;21049;-70
2022/08/15 11:00:53;;;;;;;9.25;5.53;;;;;;;36.56;40.87;99898.16;1779896;80;21056;-70
2022/08/15 11:03:47;;;;;;;14.10;4.53;;;;;;;36.36;40.85;99888.05;1769180;80;21029;-71
2022/08/15 11:06:19;;;;;;;11.25;4.20;;;;;;;36.02;38.49;99892.75;1771829;80;21006;-70
2022/08/15 11:08:53;;;;;;;10.65;4.10;;;;;;;35.84;37.56;99882.64;1776446;80;21041;-70
2022/08/15 11:11:25;;;;;;;13.65;4.42;;;;;;;36.28;37.22;99891.19;1767619;80;21038;-70
2022/08/15 11:14:00;;;;;;;12.65;4.95;;;;;;;36.27;37.80;99886.33;1765464;80;21041;-70
2022/08/15 11:16:32;;;;;;;15.08;4.42;;;;;;;35.86;36.68;99879.72;1775050;80;21076;-70
2022/08/15 11:41:14;;;;;;;13.13;4.97;;;;;;;35.92;38.29;99877.91;1784526;80;21064;-69
2022/08/15 11:43:41;;;;;;;9.50;5.58;;;;;;;36.10;37.71;99860.16;1783432;79;21057;-70
2022/08/15 11:46:17;;;;;;;11.70;5.90;;;;;;;36.23;38.33;99865.13;1772280;80;21012;-70
2022/08/15 11:48:52;;;;;;;21.40;6.45;;;;;;;36.49;38.23;99861.35;1782202;80;21025;-69
2022/08/15 11:51:27;;;;;;;12.90;6.22;;;;;;;36.77;38.44;99860.80;1748756;80;21080;-68
2022/08/15 11:54:14;;;;;;;14.93;6.25;;;;;;;37.17;38.02;99852.25;1772525;80;21470;-71
2022/08/15 11:57:04;;;;;;;13.70;5.72;;;;;;;37.81;37.48;99849.05;1766663;80;21033;-70
2022/08/15 11:59:39;;;;;;;12.23;6.80;;;;;;;37.68;37.53;99850.36;1755174;80;21077;-70
2022/08/15 12:02:24;;;;;;;13.20;6.20;;;;;;;38.26;37.11;99846.19;1766416;80;21006;-70
2022/08/15 12:04:51;;;;;;;17.70;6.17;;;;;;;38.36;37.49;99848.88;1743441;80;21065;-70
2022/08/15 12:07:27;;;;;;;15.28;6.30;;;;;;;38.20;38.53;99841.89;1762179;80;21060;-69
2022/08/15 12:10:04;;;;;;;10.30;6.08;;;;;;;37.76;38.38;99831.58;1771694;80;21009;-70
2022/08/15 12:12:42;;;;;;;12.18;6.85;;;;;;;37.68;39.15;99828.33;1755954;80;21034;-70
2022/08/15 12:15:36;;;;;;;15.45;6.50;;;;;;;37.63;39.21;99828.30;1738880;80;21053;-69
2022/08/15 12:18:24;;;;;;;9.35;5.90;;;;;;;37.55;39.31;99827.98;1781566;80;21544;-69
2022/08/15 12:21:05;;;;;;;15.18;5.87;;;;;;;37.45;38.54;99829.57;1742905;80;21033;-70
2022/08/15 12:23:56;;;;;;;12.35;5.87;;;;;;;37.22;38.14;99825.42;1769292;80;21089;-70
2022/08/15 12:26:29;;;;;;;15.40;6.35;;;;;;;37.16;38.43;99819.75;1774751;80;21036;-71
2022/08/15 12:28:57;;;;;;;10.55;5.87;;;;;;;36.94;38.42;99814.50;1766609;80;21127;-70
2022/08/15 12:31:34;;;;;;;13.08;6.00;;;;;;;36.93;38.61;99814.78;1761909;80;21503;-70
2022/08/15 12:34:22;;;;;;;10.15;5.60;;;;;;;36.89;37.45;99810.47;1760861;80;21025;-70
2022/08/15 12:36:49;;;;;;;11.25;5.80;;;;;;;37.20;37.43;99804.75;1759777;80;21577;-69
2022/08/15 12:39:19;;;;;;;12.70;5.33;;;;;;;37.65;37.29;99811.41;1766832;80;21058;-70
2022/08/15 12:41:50;;;;;;;9.95;4.85;;;;;;;37.73;37.18;99811.41;1747194;80;21076;-71
2022/08/15 12:44:22;;;;;;;10.20;5.22;;;;;;;37.94;35.99;99802.87;1773821;80;21073;-71
2022/08/15 12:46:50;;;;;;;11.18;5.20;;;;;;;37.78;36.30;99798.55;1724758;80;21026;-70
2022/08/15 12:49:17;;;;;;;11.70;4.83;;;;;;;37.57;37.09;99794.95;1766711;80;21050;-70
2022/08/15 12:51:45;;;;;;;12.20;5.60;;;;;;;37.33;36.61;99798.62;1772705;80;21576;-71
2022/08/15 12:54:12;;;;;;;12.28;6.05;;;;;;;37.27;37.05;99795.94;1765931;80;21587;-71
2022/08/15 12:56:41;;;;;;;13.58;6.28;;;;;;;37.51;36.82;99789.30;1763328;80;21001;-70
2022/08/15 12:59:08;;;;;;;11.63;6.35;;;;;;;37.70;37.96;99782.41;1745655;80;21057;-71
2022/08/15 13:01:37;;;;;;;12.13;5.80;;;;;;;37.64;37.65;99784.27;1749503;80;21034;-71
2022/08/15 13:04:10;;;;;;;14.87;6.65;;;;;;;37.70;38.11;99784.30;1767618;80;21021;-70
2022/08/15 13:06:49;;;;;;;14.33;6.80;;;;;;;37.95;37.62;99783.52;1769134;80;21160;-70
2022/08/15 13:09:19;;;;;;;12.43;6.65;;;;;;;38.11;37.43;99778.45;1754648;80;21046;-70
2022/08/15 13:11:47;;;;;;;12.07;6.30;;;;;;;37.88;37.77;99783.79;1776193;80;21507;-71
2022/08/15 13:14:17;;;;;;;10.25;5.80;;;;;;;37.99;37.97;99767.14;1764362;80;21047;-71
2022/08/15 13:16:47;;;;;;;13.38;6.00;;;;;;;37.99;37.08;99767.14;1783436;80;21030;-70
2022/08/15 13:19:25;;;;;;;18.15;5.85;;;;;;;38.03;36.82;99766.88;1744744;80;21573;-70
2022/08/15 13:24:41;;;;;;;14.87;5.72;;;;;;;38.37;35.44;99760.45;1752535;80;21112;-69
2022/08/15 13:27:09;;;;;;;12.50;5.33;;;;;;;38.35;36.17;99765.28;1745740;80;21038;-69
2022/08/15 13:29:39;;;;;;;14.05;5.28;;;;;;;38.19;35.98;99765.83;1736532;81;21022;-69
2022/08/15 13:32:07;;;;;;;11.95;5.55;;;;;;;37.56;36.36;99753.88;1765357;80;21143;-69
2022/08/15 13:34:36;;;;;;;8.78;5.85;;;;;;;37.90;35.74;99757.47;1774855;80;21080;-69
2022/08/15 13:37:04;;;;;;;16.23;5.60;;;;;;;37.83;36.57;99757.70;1782061;80;21037;-70
2022/08/15 13:39:37;;;;;;;12.70;6.78;;;;;;;38.30;37.11;99755.87;1783337;80;21037;-69
2022/08/15 13:42:05;;;;;;;12.80;5.92;;;;;;;38.36;36.13;99745.92;1755395;80;21058;-70
2022/08/15 13:44:36;;;;;;;12.33;5.97;;;;;;;38.38;36.54;99760.70;1738717;80;21037;-69
2022/08/15 13:47:05;;;;;;;14.68;6.53;;;;;;;38.26;37.70;99754.28;1762727;80;21049;-70
2022/08/15 13:49:38;;;;;;;14.53;5.80;;;;;;;38.02;37.87;99753.98;1767436;80;21138;-69
2022/08/15 13:52:03;;;;;;;12.80;6.50;;;;;;;38.08;37.46;99756.17;1769356;80;21076;-69
2022/08/15 13:54:30;;;;;;;16.12;6.42;;;;;;;37.91;37.14;99746.17;1765411;80;21105;-69
2022/08/15 13:56:59;;;;;;;17.87;6.92;;;;;;;37.63;38.37;99747.73;1745440;80;21093;-69
2022/08/15 13:59:30;;;;;;;12.33;6.15;;;;;;;37.27;38.48;99742.80;1775876;80;21553;-70
2022/08/15 14:01:57;;;;;;;14.28;6.03;;;;;;;37.10;37.14;99748.31;1784611;80;21005;-70
2022/08/15 14:04:29;;;;;;;13.00;6.05;;;;;;;36.76;36.32;99743.34;1764095;80;21081;-69
2022/08/15 14:06:59;;;;;;;12.15;6.33;;;;;;;36.73;36.35;99750.55;1760803;80;21088;-69
2022/08/15 14:09:28;;;;;;;16.60;6.70;;;;;;;36.84;36.56;99748.22;1773943;80;21077;-69
2022/08/15 14:11:56;;;;;;;15.72;6.95;;;;;;;36.75;36.02;99747.63;1765502;80;21505;-69
2022/08/15 14:14:25;;;;;;;9.18;6.15;;;;;;;36.82;36.41;99751.69;1774494;80;21021;-69
2022/08/15 14:16:53;;;;;;;13.85;6.25;;;;;;;36.77;37.95;99746.28;1742537;80;21042;-69
2022/08/15 14:19:22;;;;;;;16.07;6.37;;;;;;;36.74;37.18;99748.67;1764376;81;21042;-69
2022/08/15 14:21:49;;;;;;;12.53;6.53;;;;;;;36.50;37.14;99754.41;1777036;80;21033;-69
2022/08/15 14:24:17;;;;;;;15.13;6.90;;;;;;;36.63;37.83;99755.86;1763611;80;21628;-68
2022/08/15 14:26:49;;;;;;;13.58;6.85;;;;;;;36.65;37.64;99761.23;1755293;80;21084;-68
2022/08/15 14:29:39;;;;;;;13.43;6.22;;;;;;;36.45;37.58;99752.48;1757251;80;21509;-70
2022/08/15 14:32:11;;;;;;;17.20;7.53;;;;;;;36.29;37.50;99750.21;1752199;80;21045;-70
2022/08/15 14:34:40;;;;;;;14.35;6.75;;;;;;;36.52;38.43;99754.12;1766686;80;21037;-70
2022/08/15 14:37:11;;;;;;;13.38;6.90;;;;;;;36.33;38.35;99749.17;1776494;80;21052;-70
2022/08/15 14:39:38;;;;;;;12.58;6.65;;;;;;;36.35;38.21;99744.37;1765944;80;21076;-70
2022/08/15 14:42:06;;;;;;;12.23;6.45;;;;;;;36.26;38.91;99747.27;1755476;80;21080;-70
2022/08/15 14:44:35;;;;;;;14.47;6.40;;;;;;;36.29;39.34;99745.39;1768841;80;21079;-69
2022/08/15 14:47:03;;;;;;;12.70;6.33;;;;;;;35.97;39.69;99742.17;1760217;80;21521;-70
2022/08/15 14:49:31;;;;;;;12.30;7.10;;;;;;;36.05;39.89;99743.55;1748971;80;21045;-69
2022/08/15 14:52:01;;;;;;;9.13;6.45;;;;;;;35.94;39.85;99749.91;1768340;80;21065;-69
2022/08/15 14:54:31;;;;;;;11.93;6.70;;;;;;;36.00;40.19;99757.72;1760931;80;21093;-68
2022/08/15 14:56:59;;;;;;;13.93;6.08;;;;;;;35.79;40.85;99756.73;1748759;80;21045;-68
2022/08/15 14:59:26;;;;;;;16.85;7.05;;;;;;;35.81;40.34;99763.15;1745466;80;21036;-68
2022/08/15 15:01:53;;;;;;;11.95;6.65;;;;;;;35.63;40.22;99757.07;1738567;81;21091;-69
2022/08/15 15:04:22;;;;;;;14.58;6.60;;;;;;;35.63;40.30;99758.41;1730993;80;21007;-69
2022/08/15 15:06:49;;;;;;;16.37;6.30;;;;;;;35.62;40.37;99758.66;1732642;82;21035;-69
2022/08/15 15:09:20;;;;;;;13.48;6.40;;;;;;;35.50;40.67;99762.80;1747656;81;21543;-69
2022/08/15 15:11:47;;;;;;;11.15;6.37;;;;;;;35.49;41.14;99763.34;1735444;82;21080;-68
2022/08/15 15:14:17;;;;;;;11.45;6.30;;;;;;;35.36;41.10;99766.92;1736731;82;21110;-69
2022/08/15 15:16:44;;;;;;;11.80;6.28;;;;;;;35.28;41.03;99770.33;1724758;82;21091;-68
2022/08/15 15:19:15;;;;;;;11.22;6.30;;;;;;;35.28;41.54;99777.02;1741019;81;21536;-68
2022/08/15 15:21:43;;;;;;;11.85;6.22;;;;;;;35.27;41.81;99773.25;1732714;82;21060;-69
2022/08/15 15:24:11;;;;;;;12.82;6.03;;;;;;;35.04;43.00;99778.28;1737023;82;21052;-69
2022/08/15 15:26:42;;;;;;;15.68;6.17;;;;;;;34.96;42.59;99774.16;1741443;82;21051;-70
2022/08/15 15:29:12;;;;;;;7.60;5.58;;;;;;;34.97;42.93;99773.09;1726841;82;21121;-69
2022/08/15 15:31:41;;;;;;;10.05;5.90;;;;;;;34.92;42.77;99773.03;1733062;81;21035;-70
2022/08/15 15:34:11;;;;;;;12.93;5.97;;;;;;;34.86;42.74;99773.48;1731452;82;21070;-69
2022/08/15 15:36:41;;;;;;;12.55;6.47;;;;;;;34.79;43.23;99771.50;1721014;82;21031;-70
2022/08/15 15:39:17;;;;;;;18.10;7.33;;;;;;;34.64;43.78;99772.59;1716134;82;21032;-69
2022/08/15 15:41:45;;;;;;;13.78;7.58;;;;;;;34.51;44.24;99773.21;1739791;80;21044;-70
2022/08/15 15:44:16;;;;;;;16.07;7.72;;;;;;;34.47;44.29;99769.91;1742917;82;21074;-70
2022/08/15 15:46:44;;;;;;;12.43;7.20;;;;;;;34.49;44.37;99771.81;1732138;81;21017;-69
2022/08/15 15:49:16;;;;;;;14.58;7.15;;;;;;;34.46;44.28;99767.77;1741421;80;21045;-69